Latest Weather Observations for Gympie

IDQ60801

Issued at 8:32 pm EST Monday 27 April 2015 (issued every 30 minutes, with the page automatically refreshed every 10 minutes)

About weather observations | Map of weather stations | Latest weather observations for QLD | Other Formats
Station Details ID: 040093 Name: GYMPIE Lat: -26.18 Lon: 152.64 Height: 64.5 m
Data from the previous 72 hours. | See also: Recent months at Gympie
Date/Time
EST
Temp
°C
App
Temp
°C
Dew
Point
Rel
Hum
%
Delta-T
°C
Wind Press
QNH
hPa
Press
MSL
hPa
Rain
since 9 am
mm
Dir
 
Spd
km/h
Gust
km/h
Spd
kts
Gust
kts
27/08:30pm 14.5 14.9 12.4 87 1.1 WSW 2 6 1 3 1019.5 1019.3 0.0
27/08:00pm 15.2 15.9 12.2 82 1.6 CALM 0 0 0 0 1019.2 1019.0 0.0
27/07:30pm 16.2 17.0 12.6 79 2.0 CALM 0 0 0 0 1018.9 1018.7 0.0
27/07:00pm 17.1 17.9 12.4 74 2.6 CALM 0 0 0 0 1018.4 1018.2 0.0
27/06:30pm 18.4 19.2 12.6 69 3.2 CALM 0 0 0 0 1017.9 1017.7 0.0
27/06:00pm 20.0 20.4 12.5 62 4.2 NE 2 6 1 3 1017.4 1017.2 0.0
27/05:30pm 21.0 20.4 12.2 57 5.0 E 7 13 4 7 1016.9 1016.7 0.0
27/05:00pm 22.5 21.9 12.2 52 5.8 E 7 13 4 7 1016.5 1016.3 0.0
27/04:30pm 23.4 22.3 10.1 43 7.3 SE 6 11 3 6 1016.2 1016.0 0.0
27/04:00pm 24.1 23.1 10.4 42 7.6 SE 6 9 3 5 1015.9 1015.7 0.0
27/03:30pm 24.2 22.9 9.8 40 7.9 SE 7 13 4 7 1015.6 1015.4 0.0
27/03:00pm 24.1 22.4 10.0 41 7.8 ESE 9 17 5 9 1015.5 1015.3 0.0
27/02:30pm 24.4 22.8 10.3 41 7.8 SE 9 17 5 9 1015.6 1015.4 0.0
27/02:00pm 24.4 23.9 10.7 42 7.6 E 4 7 2 4 1015.7 1015.5 0.0
27/01:30pm 24.0 22.6 9.6 40 7.9 E 7 13 4 7 1015.7 1015.5 0.0
27/01:00pm 23.9 23.2 11.3 45 7.1 ESE 6 11 3 6 1016.0 1015.8 0.0
27/12:30pm 23.4 22.1 9.8 42 7.4 ESE 7 13 4 7 1016.4 1016.2 0.0
27/12:00pm 23.0 22.1 10.8 46 6.8 SSE 6 11 3 6 1016.7 1016.5 0.0
27/11:30am 22.8 21.8 10.3 45 6.9 SE 6 9 3 5 1017.1 1016.9 0.0
27/11:00am 21.9 20.6 10.1 47 6.4 SSE 7 15 4 8 1017.6 1017.4 0.0
27/10:30am 21.0 19.6 9.6 48 6.1 S 7 11 4 6 1018.0 1017.8 0.0
27/10:00am 20.3 19.5 9.5 50 5.8 SE 4 6 2 3 1018.3 1018.1 0.0
27/09:30am 18.9 18.1 9.7 55 4.9 SW 4 7 2 4 1018.4 1018.2 0.0
27/09:00am 17.4 17.2 9.1 58 4.3 CALM 0 0 0 0 1018.4 1018.2 0.0
27/08:30am 16.1 15.8 8.8 62 3.7 CALM 0 0 0 0 1018.4 1018.2 0.0
27/08:00am 13.3 13.0 8.6 73 2.4 CALM 0 0 0 0 1018.1 1017.9 0.0
27/07:30am 10.8 10.5 8.6 86 1.1 CALM 0 0 0 0 1017.9 1017.7 0.0
27/07:00am 8.0 7.3 6.9 93 0.5 CALM 0 0 0 0 1017.7 1017.5 0.0
27/06:30am 7.4 6.6 6.3 93 0.5 CALM 0 0 0 0 1017.3 1017.1 0.0
27/06:00am 7.4 6.5 5.9 90 0.7 CALM 0 0 0 0 1017.0 1016.8 0.0
27/05:30am 8.2 7.3 6.2 87 0.9 CALM 0 0 0 0 1016.8 1016.6 0.0
27/05:00am 8.3 6.7 6.3 87 0.9 N 4 7 2 4 1016.4 1016.2 0.0
27/04:30am 8.0 6.7 5.8 86 1.0 NNW 2 4 1 2 1015.9 1015.7 0.0
27/04:00am 7.2 5.7 5.0 86 1.0 SE 2 6 1 3 1015.7 1015.5 0.0
27/03:30am 8.7 7.9 6.3 85 1.1 CALM 0 0 0 0 1015.9 1015.7 0.0
27/03:00am 9.4 8.6 6.7 83 1.3 CALM 0 2 0 1 1015.8 1015.6 0.0
27/02:30am 9.0 7.8 6.3 83 1.2 NNW 2 4 1 2 1016.1 1015.9 0.0
27/02:00am 9.9 8.3 6.3 78 1.7 N 4 7 2 4 1016.2 1016.0 0.0
27/01:30am 10.5 8.5 6.3 75 2.0 NNW 6 9 3 5 1016.2 1016.0 0.0
27/01:00am 11.8 10.4 7.3 74 2.2 SW 4 7 2 4 1016.2 1016.0 0.0
27/12:30am 10.5 8.4 5.9 73 2.1 NNE 6 7 3 4 1016.3 1016.1 0.0
27/12:00am 13.0 11.1 6.6 65 3.1 WSW 6 15 3 8 1016.1 1015.9 0.0
 
Date/Time
EST
Temp
°C
App
Temp
°C
Dew
Point
Rel
Hum
%
Delta-T
°C
Wind Press
QNH
hPa
Press
MSL
hPa
Rain
since 9 am
mm
Dir
 
Spd
km/h
Gust
km/h
Spd
kts
Gust
kts
26/11:30pm 14.6 13.3 5.9 56 4.2 S 2 6 1 3 1016.3 1016.1 0.0
26/11:00pm 16.2 13.9 5.8 50 5.0 SSW 7 20 4 11 1016.1 1015.9 0.0
26/10:30pm 15.5 13.4 5.7 52 4.7 S 6 11 3 6 1016.1 1015.9 0.0
26/10:00pm 16.5 13.9 6.1 50 5.1 S 9 20 5 11 1016.4 1016.2 0.0
26/09:30pm 15.8 13.7 6.0 52 4.7 SSE 6 9 3 5 1016.4 1016.2 0.0
26/09:00pm 16.3 14.0 5.6 49 5.1 SSW 7 15 4 8 1016.4 1016.2 0.0
26/08:30pm 16.1 14.2 5.1 48 5.2 WNW 4 15 2 8 1016.3 1016.1 0.0
26/08:00pm 15.7 14.3 5.6 51 4.8 S 2 6 1 3 1016.2 1016.0 0.0
26/07:30pm 16.0 13.9 5.6 50 5.0 SSW 6 13 3 7 1015.8 1015.6 0.0
26/07:00pm 16.8 15.6 4.8 45 5.7 CALM 0 0 0 0 1015.2 1015.0 0.0
26/06:30pm 17.2 14.9 4.9 44 5.9 SW 6 9 3 5 1014.6 1014.4 0.0
26/06:00pm 19.1 16.6 3.7 36 7.3 SW 6 7 3 4 1014.1 1013.9 0.0
26/05:30pm 20.2 17.1 3.4 33 8.0 SW 9 24 5 13 1013.6 1013.4 0.0
26/05:00pm 21.7 18.7 4.3 32 8.5 WSW 9 17 5 9 1013.1 1012.9 0.0
26/04:30pm 22.7 19.3 3.8 29 9.2 WSW 11 17 6 9 1012.6 1012.4 0.0
26/04:00pm 23.3 19.1 3.8 28 9.5 W 15 26 8 14 1012.2 1011.9 0.0
26/03:30pm 23.8 19.5 3.2 26 10.0 SW 15 33 8 18 1011.8 1011.5 0.0
26/03:00pm 24.1 19.7 4.5 28 9.8 SW 17 37 9 20 1011.4 1011.1 0.0
26/02:30pm 24.1 19.2 4.0 27 9.9 W 19 32 10 17 1011.1 1010.8 0.0
26/02:00pm 24.4 19.7 3.1 25 10.4 WSW 17 32 9 17 1011.1 1010.8 0.0
26/01:30pm 24.4 20.1 3.1 25 10.4 WSW 15 28 8 15 1010.9 1010.6 0.0
26/01:00pm 24.1 19.8 3.4 26 10.1 WSW 15 33 8 18 1011.0 1010.7 0.0
26/12:30pm 23.9 20.3 4.8 29 9.6 WSW 13 22 7 12 1011.3 1011.0 0.0
26/12:00pm 23.1 19.1 5.1 31 9.0 WSW 15 26 8 14 1011.7 1011.4 0.0
26/11:30am 23.2 20.5 5.6 32 8.9 WSW 9 19 5 10 1012.0 1011.7 0.0
26/11:00am 22.4 19.0 5.8 34 8.4 WSW 13 30 7 16 1012.5 1012.3 0.0
26/10:30am 21.4 17.8 4.9 34 8.1 WSW 13 20 7 11 1013.1 1012.9 0.0
26/10:00am 20.7 16.0 3.4 32 8.2 WSW 17 28 9 15 1013.4 1013.2 0.0
26/09:30am 20.4 15.9 4.0 34 7.9 W 17 28 9 15 1013.6 1013.4 0.0
26/09:00am 19.7 15.0 3.4 34 7.7 WSW 17 32 9 17 1013.6 1013.4 0.0
26/08:30am 19.1 15.3 5.6 41 6.6 WSW 15 24 8 13 1013.7 1013.5 0.0
26/08:00am 18.4 16.0 7.2 48 5.7 WSW 9 15 5 8 1013.6 1013.4 0.0
26/07:30am 17.3 15.1 6.2 48 5.5 WSW 7 11 4 6 1013.4 1013.2 0.0
26/07:00am 14.7 12.6 6.8 59 3.9 SW 7 9 4 5 1013.1 1012.9 0.0
26/06:30am 12.5 11.5 8.8 78 1.9 WSW 4 7 2 4 1012.7 1012.5 0.0
26/06:00am 13.0 11.7 9.8 81 1.6 WSW 7 11 4 6 1012.2 1011.9 0.0
26/05:30am 12.1 11.9 10.5 90 0.8 WNW 2 9 1 5 1011.8 1011.5 0.0
26/05:00am 12.8 13.2 11.2 90 0.8 CALM 0 0 0 0 1011.5 1011.2 0.0
26/04:30am 14.0 13.9 12.2 89 1.0 WSW 4 7 2 4 1011.2 1010.9 0.0
26/04:00am 13.0 12.9 12.2 95 0.4 SW 4 7 2 4 1010.9 1010.6 0.0
26/03:30am 13.6 14.4 12.7 94 0.5 CALM 0 4 0 2 1010.6 1010.3 0.0
26/03:00am 14.2 14.4 13.2 94 0.6 N 4 6 2 3 1010.5 1010.2 0.0
26/02:30am 15.1 16.4 14.1 94 0.6 CALM 0 2 0 1 1010.5 1010.2 0.0
26/02:00am 15.0 15.9 14.0 94 0.6 SE 2 4 1 2 1010.2 1009.9 0.0
26/01:30am 14.9 15.8 13.9 94 0.6 SSE 2 4 1 2 1010.1 1009.8 0.0
26/01:00am 15.0 16.2 13.9 93 0.6 CALM 0 0 0 0 1010.2 1009.9 0.0
26/12:30am 15.6 16.8 13.8 89 1.0 CALM 0 0 0 0 1010.2 1009.9 0.0
26/12:00am 15.9 17.3 14.3 90 0.9 CALM 0 0 0 0 1010.2 1009.9 0.0
 
Date/Time
EST
Temp
°C
App
Temp
°C
Dew
Point
Rel
Hum
%
Delta-T
°C
Wind Press
QNH
hPa
Press
MSL
hPa
Rain
since 9 am
mm
Dir
 
Spd
km/h
Gust
km/h
Spd
kts
Gust
kts
25/11:30pm 15.7 16.6 14.1 90 0.9 WSW 2 6 1 3 1010.3 1010.0 0.0
25/11:00pm 16.2 17.4 13.9 86 1.3 CALM 0 4 0 2 1010.2 1009.9 0.0
25/10:30pm 17.4 18.8 14.5 83 1.7 CALM 0 0 0 0 1010.6 1010.3 0.0
25/10:00pm 17.3 18.6 14.2 82 1.8 CALM 0 0 0 0 1010.7 1010.4 0.0
25/09:30pm 18.1 19.7 14.8 81 1.9 CALM 0 0 0 0 1010.8 1010.5 0.0
25/09:00pm 18.8 20.2 14.5 76 2.5 CALM 0 4 0 2 1010.8 1010.5 0.0
25/08:30pm 19.4 20.9 14.6 74 2.8 CALM 0 0 0 0 1010.7 1010.4 0.0
25/08:00pm 20.3 20.9 14.2 68 3.6 SSW 4 4 2 2 1010.5 1010.2 0.0
25/07:30pm 21.3 22.0 14.5 65 4.0 E 4 6 2 3 1010.0 1009.7 0.0
25/07:00pm 20.5 20.7 13.2 63 4.2 SSE 4 6 2 3 1009.6 1009.3 0.0
25/06:30pm 23.2 23.5 13.4 54 5.7 N 4 7 2 4 1009.2 1008.9 0.0
25/06:00pm 22.8 22.7 13.3 55 5.5 NNE 6 7 3 4 1008.7 1008.4 0.0
25/05:30pm 24.4 24.6 13.0 49 6.6 N 4 6 2 3 1008.4 1008.1 0.0
25/05:00pm 27.6 28.2 14.3 44 8.0 N 4 6 2 3 1008.0 1007.7 0.0
25/04:30pm 29.0 28.4 11.6 34 10.1 NNW 6 7 3 4 1007.8 1007.5 0.0
25/04:00pm 29.6 28.7 11.2 32 10.6 NNW 7 13 4 7 1007.6 1007.3 0.0
25/03:30pm 29.9 29.6 11.4 32 10.7 NNW 4 7 2 4 1007.7 1007.4 0.0
25/03:00pm 29.5 28.2 11.1 32 10.6 N 9 15 5 8 1007.8 1007.5 0.0
25/02:30pm 29.7 29.2 10.8 31 10.8 NNE 4 11 2 6 1007.8 1007.5 0.0
25/02:00pm 29.1 28.2 10.7 32 10.5 W 6 7 3 4 1008.0 1007.7 0.0
25/01:30pm 28.6 27.3 11.2 34 10.0 N 9 13 5 7 1008.2 1007.9 0.0
25/01:00pm 28.4 27.3 10.6 33 10.1 NW 7 19 4 10 1008.6 1008.3 0.0
25/12:30pm 28.1 26.1 10.3 33 10.0 NNW 11 17 6 9 1009.1 1008.8 0.0
25/12:00pm 27.6 26.7 11.2 36 9.4 WNW 7 11 4 6 1009.6 1009.3 0.0
25/11:30am 27.1 27.2 13.8 44 7.9 N 6 9 3 5 1010.1 1009.8 0.0
25/11:00am 26.2 27.4 15.0 50 6.8 N 2 6 1 3 1010.7 1010.4 0.0
25/10:30am 25.1 26.7 16.0 57 5.6 NW 2 4 1 2 1011.2 1010.9 0.0
25/10:00am 23.3 25.2 16.8 67 4.0 NW 2 4 1 2 1011.5 1011.2 0.0
25/09:30am 21.1 22.8 16.1 73 3.0 NNW 2 6 1 3 1011.8 1011.5 0.0
25/09:00am 18.5 20.2 15.2 81 1.9 CALM 0 0 0 0 1011.9 1011.6 0.0
25/08:30am 16.7 18.4 15.2 91 0.9 CALM 0 0 0 0 1011.9 1011.6 0.0
25/08:00am 15.0 16.4 14.4 96 0.3 CALM 0 0 0 0 1011.9 1011.6 0.0
25/07:30am 12.9 13.7 12.6 98 0.2 CALM 0 0 0 0 1011.9 1011.6 0.0
25/07:00am 12.0 12.5 11.7 98 0.2 CALM 0 0 0 0 1011.5 1011.2 0.0
25/06:30am 11.2 11.4 10.7 97 0.3 CALM 0 0 0 0 1011.2 1010.9 0.0
25/06:00am 11.3 11.6 10.8 97 0.3 CALM 0 0 0 0 1010.9 1010.6 0.0
25/05:30am 12.0 12.5 11.7 98 0.2 CALM 0 0 0 0 1010.7 1010.4 0.0
25/05:00am 11.9 12.3 11.4 97 0.3 CALM 0 0 0 0 1010.5 1010.2 0.0
25/04:30am 11.8 12.2 11.3 97 0.3 CALM 0 0 0 0 1010.3 1010.0 0.0
25/04:00am 12.3 12.9 12.0 98 0.2 CALM 0 0 0 0 1010.2 1009.9 0.0
25/03:30am 12.6 13.3 12.1 97 0.3 CALM 0 0 0 0 1010.4 1010.1 0.0
25/03:00am 12.7 13.4 12.1 96 0.3 CALM 0 0 0 0 1010.3 1010.0 0.0
25/02:30am 13.3 14.2 12.8 97 0.3 CALM 0 0 0 0 1010.3 1010.0 0.0
25/02:00am 13.2 14.0 12.4 95 0.4 CALM 0 0 0 0 1010.4 1010.1 0.0
25/01:30am 13.6 14.5 12.8 95 0.4 CALM 0 0 0 0 1010.8 1010.5 0.0
25/01:00am 14.0 15.0 13.2 95 0.4 CALM 0 0 0 0 1010.6 1010.3 0.0
25/12:30am 14.7 16.0 14.1 96 0.3 CALM 0 0 0 0 1010.8 1010.5 0.0
25/12:00am 14.6 15.7 13.6 94 0.6 CALM 0 0 0 0 1010.9 1010.6 0.0
 
Date/Time
EST
Temp
°C
App
Temp
°C
Dew
Point
Rel
Hum
%
Delta-T
°C
Wind Press
QNH
hPa
Press
MSL
hPa
Rain
since 9 am
mm
Dir
 
Spd
km/h
Gust
km/h
Spd
kts
Gust
kts
24/11:30pm 15.3 16.7 14.3 94 0.6 CALM 0 0 0 0 1010.9 1010.6 0.0
24/11:00pm 15.6 17.0 14.5 93 0.6 CALM 0 0 0 0 1011.0 1010.7 0.0
24/10:30pm 16.2 17.9 15.1 93 0.6 CALM 0 0 0 0 1010.9 1010.6 0.0
24/10:00pm 16.8 18.5 15.3 91 0.9 CALM 0 0 0 0 1011.0 1010.7 0.0
24/09:30pm 16.7 18.1 14.5 87 1.3 CALM 0 0 0 0 1011.1 1010.8 0.0
24/09:00pm 17.6 19.2 15.0 85 1.5 CALM 0 4 0 2 1011.0 1010.7 0.0

Other Formats:

Comma delimited format used in spreadsheet applications
http://www.bom.gov.au/fwo/IDQ60801/IDQ60801.94566.axf

JavaScript Object Notation format (JSON) in row-major order
http://www.bom.gov.au/fwo/IDQ60801/IDQ60801.94566.json